Time;durP1;ratioP1;P1;durP2;ratioP2;P2;SDS_P1;SDS_P2;PMS_P1;PMS_P2;Temp;Humidity;BMP_temperature;BMP_pressure;BME280_temperature;BME280_humidity;BME280_pressure;Samples;Min_cycle;Max_cycle;Signal;HPM_P1;HPM_P2
2021/11/05 00:00:48;;;;;;;26.20;14.60;;;;;;;8.60;92.42;100123.56;5043972;28;20141;-49
2021/11/05 00:03:14;;;;;;;30.98;15.57;;;;;;;8.67;93.35;100139.88;5067163;28;20707;-50
2021/11/05 00:05:39;;;;;;;28.13;15.07;;;;;;;8.58;93.24;100142.63;5064277;28;20207;-47
2021/11/05 00:08:09;;;;;;;27.88;14.05;;;;;;;8.47;94.33;100135.06;5044484;28;20044;-44
2021/11/05 00:10:37;;;;;;;34.05;15.75;;;;;;;8.43;94.58;100128.22;5067133;28;20538;-45
2021/11/05 00:13:03;;;;;;;27.05;13.13;;;;;;;8.37;94.98;100126.59;5035101;28;20040;-46
2021/11/05 00:15:29;;;;;;;29.42;14.45;;;;;;;8.35;96.05;100130.97;5041334;28;20105;-45
2021/11/05 00:17:55;;;;;;;27.35;12.73;;;;;;;8.37;96.10;100141.31;5045137;28;20048;-46
2021/11/05 00:20:23;;;;;;;25.05;13.20;;;;;;;8.39;95.98;100142.97;5039753;28;20041;-45
2021/11/05 00:22:49;;;;;;;28.65;13.52;;;;;;;8.32;96.14;100118.03;5056074;28;20040;-46
2021/11/05 00:25:15;;;;;;;26.88;14.23;;;;;;;8.41;95.95;100122.22;5022830;28;20055;-47
2021/11/05 00:27:41;;;;;;;29.42;15.30;;;;;;;8.45;96.03;100124.72;5072192;28;20036;-43
2021/11/05 00:30:09;;;;;;;27.63;13.57;;;;;;;8.50;95.86;100119.44;5070208;28;20044;-47
2021/11/05 00:32:35;;;;;;;25.88;12.95;;;;;;;8.55;95.45;100116.75;5070597;28;20092;-45
2021/11/05 00:35:01;;;;;;;27.17;13.27;;;;;;;8.55;95.80;100132.31;5083299;28;20043;-47
2021/11/05 00:37:29;;;;;;;28.73;13.77;;;;;;;8.59;95.84;100126.19;5071304;28;20047;-49
2021/11/05 00:39:55;;;;;;;26.70;13.25;;;;;;;8.59;96.05;100123.59;5070759;28;20074;-46
2021/11/05 00:42:21;;;;;;;27.88;13.63;;;;;;;8.56;96.32;100108.13;5069350;28;20049;-47
2021/11/05 00:44:48;;;;;;;25.38;12.30;;;;;;;8.65;96.07;100116.56;5071318;28;20526;-47
2021/11/05 00:47:15;;;;;;;27.95;13.50;;;;;;;8.66;96.63;100122.59;5046134;28;20037;-46
2021/11/05 00:49:42;;;;;;;28.15;13.15;;;;;;;8.72;96.40;100118.16;5050260;28;20048;-47
2021/11/05 00:52:08;;;;;;;27.80;13.20;;;;;;;8.76;96.24;100124.13;5052167;28;20094;-48
2021/11/05 00:54:34;;;;;;;28.25;13.07;;;;;;;8.72;97.15;100118.16;5058371;28;20045;-45
2021/11/05 00:57:00;;;;;;;28.25;12.82;;;;;;;8.74;97.48;100131.09;5069029;28;20435;-44
2021/11/05 00:59:26;;;;;;;29.35;13.55;;;;;;;8.72;98.84;100120.75;5050078;28;20048;-46
2021/11/05 01:01:52;;;;;;;30.63;13.80;;;;;;;8.71;99.65;100116.44;5038300;28;20392;-46
2021/11/05 01:04:18;;;;;;;31.52;13.98;;;;;;;8.72;100.00;100120.75;5085127;28;20510;-46
2021/11/05 01:06:44;;;;;;;32.05;13.75;;;;;;;8.73;100.00;100114.69;5087031;28;20040;-47
2021/11/05 01:09:10;;;;;;;31.60;13.45;;;;;;;8.75;100.00;100102.53;5052506;28;20036;-47
2021/11/05 01:11:36;;;;;;;33.55;13.98;;;;;;;8.75;100.00;100102.53;5070849;28;20113;-45
2021/11/05 01:14:02;;;;;;;34.50;12.98;;;;;;;8.73;100.00;100095.69;5070284;28;20036;-47
2021/11/05 01:16:29;;;;;;;35.15;14.15;;;;;;;8.74;100.00;100085.25;5069660;28;20511;-45
2021/11/05 01:18:55;;;;;;;35.63;14.55;;;;;;;8.81;100.00;100088.59;5071254;28;20408;-47
2021/11/05 01:21:21;;;;;;;36.53;14.27;;;;;;;8.84;100.00;100076.44;5070106;28;20043;-47
2021/11/05 01:23:47;;;;;;;42.00;14.43;;;;;;;8.88;100.00;100051.28;5070994;28;20049;-45
2021/11/05 01:26:13;;;;;;;36.53;14.57;;;;;;;8.82;100.00;100021.16;5050400;28;20598;-45
2021/11/05 01:28:39;;;;;;;33.80;13.90;;;;;;;8.95;100.00;100026.09;5070158;28;20145;-51
2021/11/05 01:31:05;;;;;;;34.08;14.57;;;;;;;8.87;100.00;100028.84;5061793;28;20056;-44
2021/11/05 01:33:31;;;;;;;41.50;15.00;;;;;;;8.86;100.00;100035.75;5068433;28;20043;-44
2021/11/05 01:35:58;;;;;;;37.50;13.55;;;;;;;8.85;100.00;100043.56;5053571;28;20113;-50
2021/11/05 01:38:24;;;;;;;33.28;13.55;;;;;;;8.81;100.00;100041.94;5048532;28;20420;-45
2021/11/05 01:40:50;;;;;;;41.10;14.82;;;;;;;8.82;100.00;100057.47;5070332;28;20044;-52
2021/11/05 01:43:16;;;;;;;35.90;13.90;;;;;;;8.76;100.00;100044.63;5057759;28;20040;-45
2021/11/05 01:45:43;;;;;;;45.15;15.18;;;;;;;8.80;100.00;100042.81;5071026;28;20589;-46
2021/11/05 01:48:11;;;;;;;47.38;16.67;;;;;;;8.78;100.00;100034.22;5071334;28;20506;-46
2021/11/05 01:50:37;;;;;;;46.15;15.95;;;;;;;8.84;100.00;100042.72;5070085;28;20557;-46
2021/11/05 01:53:03;;;;;;;45.17;15.95;;;;;;;8.87;100.00;100036.63;5066405;28;20083;-49
2021/11/05 01:55:29;;;;;;;43.78;16.27;;;;;;;8.91;100.00;100033.91;5070386;28;20090;-50
2021/11/05 01:57:55;;;;;;;46.70;14.75;;;;;;;8.90;100.00;100032.19;5070956;28;20063;-47
2021/11/05 02:00:24;;;;;;;44.95;15.55;;;;;;;8.93;100.00;100032.16;5052549;28;20056;-51
2021/11/05 02:02:50;;;;;;;47.00;16.65;;;;;;;8.95;100.00;100018.31;5053173;28;20047;-48
2021/11/05 02:05:16;;;;;;;49.42;16.20;;;;;;;8.96;100.00;100023.44;5070160;28;20040;-48
2021/11/05 02:07:44;;;;;;;46.33;14.95;;;;;;;9.02;100.00;100031.09;5061326;28;20051;-46
2021/11/05 02:10:11;;;;;;;42.30;15.30;;;;;;;9.09;100.00;100032.66;5069172;28;20036;-48
2021/11/05 02:12:38;;;;;;;41.10;14.60;;;;;;;9.09;100.00;100026.63;5079683;28;20044;-46
2021/11/05 02:15:05;;;;;;;45.58;14.73;;;;;;;9.09;100.00;100018.84;5069256;28;20056;-47
2021/11/05 02:17:31;;;;;;;44.95;15.18;;;;;;;9.10;100.00;100011.03;5051873;28;20041;-44
2021/11/05 02:19:59;;;;;;;42.53;15.57;;;;;;;9.15;100.00;100004.00;5069766;28;20036;-47
2021/11/05 02:22:25;;;;;;;46.22;15.40;;;;;;;9.18;100.00;100006.50;5069767;28;20130;-45
2021/11/05 02:24:51;;;;;;;47.65;14.73;;;;;;;9.21;100.00;100014.19;5069039;28;20039;-45
2021/11/05 02:27:17;;;;;;;54.08;17.40;;;;;;;9.15;100.00;100001.41;5069439;28;20049;-45
2021/11/05 02:29:43;;;;;;;51.35;17.00;;;;;;;9.23;100.00;100007.25;5069469;28;20162;-46
2021/11/05 02:32:09;;;;;;;42.90;14.82;;;;;;;9.31;100.00;100009.66;5069513;28;20072;-50
2021/11/05 02:34:35;;;;;;;48.17;16.90;;;;;;;9.25;100.00;99997.69;5068251;28;20060;-48
2021/11/05 02:37:03;;;;;;;45.67;15.35;;;;;;;9.36;100.00;100010.41;5069323;28;20067;-47
2021/11/05 02:39:30;;;;;;;45.03;15.50;;;;;;;9.41;100.00;100011.16;5069497;28;20044;-47
2021/11/05 02:41:56;;;;;;;45.10;15.80;;;;;;;9.46;100.00;100001.50;5066537;28;20040;-46
2021/11/05 02:44:22;;;;;;;48.08;16.73;;;;;;;9.50;100.00;99999.69;5051914;28;20491;-46
2021/11/05 02:46:49;;;;;;;51.95;17.10;;;;;;;9.51;100.00;99993.59;5085183;28;20048;-47
2021/11/05 02:49:16;;;;;;;48.75;17.23;;;;;;;9.54;100.00;99984.00;5068927;28;20032;-46
2021/11/05 02:51:43;;;;;;;50.13;17.05;;;;;;;9.57;100.00;99975.28;5056112;28;20040;-47
2021/11/05 02:54:12;;;;;;;50.30;17.33;;;;;;;9.56;100.00;99969.25;5061953;28;20048;-48
2021/11/05 02:56:38;;;;;;;47.58;16.33;;;;;;;9.58;100.00;99976.97;5052750;28;20136;-47
2021/11/05 02:59:05;;;;;;;48.63;16.30;;;;;;;9.49;100.00;99965.09;5037687;28;20465;-46
2021/11/05 03:01:32;;;;;;;51.42;15.98;;;;;;;9.62;100.00;99979.47;5068033;28;20040;-50
2021/11/05 03:04:04;;;;;;;48.80;18.33;;;;;;;9.67;100.00;99975.00;5066267;28;20134;-46
2021/11/05 03:06:37;;;;;;;53.15;17.45;;;;;;;9.69;100.00;99972.34;5054116;28;20055;-45
2021/11/05 03:09:14;;;;;;;55.30;18.15;;;;;;;9.74;100.00;99965.28;5067733;28;20048;-47
2021/11/05 03:11:41;;;;;;;44.85;16.63;;;;;;;9.79;100.00;99977.25;5068505;28;20456;-46
2021/11/05 03:14:08;;;;;;;57.70;17.38;;;;;;;9.76;100.00;99961.78;5068891;28;20405;-45
2021/11/05 03:16:34;;;;;;;57.30;18.15;;;;;;;9.80;100.00;99962.53;5068669;28;20749;-47
2021/11/05 03:19:00;;;;;;;55.25;18.80;;;;;;;9.77;100.00;99960.91;5084815;28;20044;-48
2021/11/05 03:21:29;;;;;;;48.65;18.20;;;;;;;9.81;100.00;99956.47;5034551;28;20041;-49
2021/11/05 03:23:55;;;;;;;51.60;18.60;;;;;;;9.87;100.00;99956.31;5068933;28;20044;-49
2021/11/05 03:26:21;;;;;;;45.25;16.00;;;;;;;9.90;100.00;99945.81;5061567;28;20456;-45
2021/11/05 03:28:47;;;;;;;45.58;17.65;;;;;;;9.92;100.00;99948.38;5050597;28;20135;-47
2021/11/05 03:31:13;;;;;;;48.03;17.10;;;;;;;9.94;100.00;99947.47;5068293;28;20147;-48
2021/11/05 03:33:39;;;;;;;58.97;20.70;;;;;;;9.95;100.00;99940.50;5057143;28;20044;-45
2021/11/05 03:36:04;;;;;;;49.33;17.90;;;;;;;9.97;100.00;99944.75;5062151;28;20075;-46
2021/11/05 03:38:30;;;;;;;56.25;20.48;;;;;;;9.97;100.00;99939.56;5069178;28;20070;-49
2021/11/05 03:40:56;;;;;;;48.15;17.15;;;;;;;10.00;100.00;99934.28;5052985;28;20391;-47
2021/11/05 03:43:22;;;;;;;54.75;19.48;;;;;;;10.05;100.00;99934.16;5060933;28;20048;-49
2021/11/05 03:45:48;;;;;;;51.30;18.13;;;;;;;10.06;100.00;99934.09;5052106;28;20590;-48
2021/11/05 03:48:13;;;;;;;47.72;17.95;;;;;;;10.01;100.00;99925.59;5068840;28;20073;-46
2021/11/05 03:50:39;;;;;;;50.13;18.10;;;;;;;10.13;100.00;99929.59;5072067;28;20037;-46
2021/11/05 03:53:05;;;;;;;58.83;19.83;;;;;;;10.10;100.00;99912.34;5058548;28;20540;-46
2021/11/05 03:55:31;;;;;;;44.97;16.90;;;;;;;10.18;100.00;99909.56;5071656;28;20161;-48
2021/11/05 03:57:57;;;;;;;48.78;16.98;;;;;;;10.20;100.00;99915.59;5051620;28;20551;-47
2021/11/05 04:00:24;;;;;;;52.03;19.42;;;;;;;10.08;100.00;99887.31;5078818;28;20149;-46
2021/11/05 04:02:50;;;;;;;44.65;17.33;;;;;;;10.23;100.00;99915.47;5071514;28;20068;-46
2021/11/05 04:05:16;;;;;;;52.65;19.08;;;;;;;10.27;100.00;99911.03;5071769;28;20047;-49
2021/11/05 04:07:42;;;;;;;50.40;18.40;;;;;;;10.23;100.00;99906.81;5071298;28;20047;-48
2021/11/05 04:10:09;;;;;;;49.92;18.42;;;;;;;10.28;100.00;99908.41;5072509;28;20415;-46
2021/11/05 04:12:35;;;;;;;52.22;18.73;;;;;;;10.33;100.00;99905.66;5072057;28;20135;-48
2021/11/05 04:15:01;;;;;;;52.72;18.52;;;;;;;10.35;100.00;99888.28;5036901;28;20463;-47
2021/11/05 04:17:29;;;;;;;53.20;19.10;;;;;;;10.41;100.00;99886.34;5054934;28;20036;-47
2021/11/05 04:19:54;;;;;;;52.40;19.38;;;;;;;10.43;100.00;99871.53;5072853;28;20533;-47
2021/11/05 04:22:20;;;;;;;52.15;18.83;;;;;;;10.49;100.00;99873.97;5081488;28;20048;-45
2021/11/05 04:24:46;;;;;;;47.85;18.77;;;;;;;10.43;100.00;99849.91;5071371;28;20167;-50
2021/11/05 04:27:12;;;;;;;54.72;19.50;;;;;;;10.57;100.00;99871.13;5071314;28;20086;-46
2021/11/05 04:29:38;;;;;;;48.15;19.20;;;;;;;10.58;100.00;99872.81;5070900;28;20373;-48
2021/11/05 04:32:04;;;;;;;48.30;19.65;;;;;;;10.66;100.00;99870.84;5071628;28;20051;-46
2021/11/05 04:34:31;;;;;;;53.33;20.08;;;;;;;10.65;100.00;99858.72;5071589;28;20554;-47
2021/11/05 04:36:57;;;;;;;49.20;17.92;;;;;;;10.64;100.00;99864.81;5071561;28;20047;-47
2021/11/05 04:39:24;;;;;;;47.58;18.75;;;;;;;10.62;100.00;99853.66;5071816;28;20037;-45
2021/11/05 04:41:51;;;;;;;48.42;18.58;;;;;;;10.66;100.00;99857.00;5069826;28;20465;-44
2021/11/05 04:44:17;;;;;;;48.67;21.08;;;;;;;10.71;100.00;99866.34;5062597;28;20053;-48
2021/11/05 04:46:43;;;;;;;60.45;21.52;;;;;;;10.71;100.00;99850.75;5055206;28;20427;-50
2021/11/05 04:49:09;;;;;;;47.17;20.10;;;;;;;10.73;100.00;99854.13;5062847;28;20697;-47
2021/11/05 04:51:35;;;;;;;49.13;20.52;;;;;;;10.73;100.00;99848.91;5059719;28;20053;-45
2021/11/05 04:54:02;;;;;;;50.72;19.35;;;;;;;10.75;100.00;99865.34;5069474;28;20538;-50
2021/11/05 04:56:28;;;;;;;45.55;20.30;;;;;;;10.79;100.00;99871.28;5070269;28;20107;-50
2021/11/05 04:58:54;;;;;;;50.97;21.05;;;;;;;10.82;100.00;99861.66;5057862;28;20051;-47
2021/11/05 05:01:20;;;;;;;51.05;20.77;;;;;;;10.85;100.00;99866.75;5053748;28;20044;-48
2021/11/05 05:03:46;;;;;;;45.33;20.63;;;;;;;10.85;100.00;99855.47;5070870;28;20056;-50
2021/11/05 05:06:11;;;;;;;53.50;21.15;;;;;;;10.83;100.00;99847.75;5053093;28;20047;-46
2021/11/05 05:08:39;;;;;;;42.70;19.95;;;;;;;10.99;100.00;99867.13;5070078;28;20053;-48
2021/11/05 05:11:04;;;;;;;45.50;19.40;;;;;;;10.99;100.00;99855.91;5053660;28;20044;-46
2021/11/05 05:13:30;;;;;;;45.35;19.77;;;;;;;11.00;100.00;99861.03;5055302;28;20419;-47
2021/11/05 05:15:56;;;;;;;44.25;20.67;;;;;;;11.01;100.00;99856.69;5069473;28;20096;-47
2021/11/05 05:18:22;;;;;;;49.58;20.45;;;;;;;11.00;100.00;99860.19;5068129;28;20043;-48
2021/11/05 05:20:49;;;;;;;43.53;18.98;;;;;;;11.05;99.89;99863.47;5071039;28;20531;-46
2021/11/05 05:23:15;;;;;;;43.03;20.20;;;;;;;11.05;99.04;99856.53;5067558;28;20040;-48
2021/11/05 05:25:41;;;;;;;44.70;20.40;;;;;;;11.07;98.62;99847.81;5069413;28;20044;-45
2021/11/05 05:28:07;;;;;;;41.28;18.67;;;;;;;11.11;98.29;99844.22;5053541;28;20063;-51
2021/11/05 05:30:34;;;;;;;39.75;19.48;;;;;;;11.07;97.32;99833.06;5068684;28;20523;-46
2021/11/05 05:33:00;;;;;;;39.42;18.77;;;;;;;11.13;96.98;99824.19;5056317;28;20040;-46
2021/11/05 05:35:25;;;;;;;38.13;18.10;;;;;;;11.17;95.81;99810.19;5070317;28;20113;-46
2021/11/05 05:37:53;;;;;;;42.22;19.25;;;;;;;11.16;95.43;99814.53;5053226;28;20051;-46
2021/11/05 05:40:21;;;;;;;42.75;17.42;;;;;;;11.21;94.81;99816.97;5068655;28;20051;-51
2021/11/05 05:42:46;;;;;;;33.55;17.63;;;;;;;11.19;94.04;99813.59;5049553;28;20483;-44
2021/11/05 05:45:12;;;;;;;43.33;18.58;;;;;;;11.21;93.82;99829.97;5053655;28;20146;-48
2021/11/05 05:47:40;;;;;;;45.03;18.73;;;;;;;11.22;92.79;99822.13;5068599;28;20055;-48
2021/11/05 05:50:13;;;;;;;39.03;17.15;;;;;;;11.24;92.75;99830.75;5067674;28;20074;-47
2021/11/05 05:52:39;;;;;;;36.83;17.38;;;;;;;11.29;92.16;99843.59;5066177;28;20075;-47
2021/11/05 05:55:08;;;;;;;29.25;15.10;;;;;;;11.27;91.17;99835.84;5066133;28;20136;-48
2021/11/05 05:57:35;;;;;;;32.90;16.95;;;;;;;11.31;91.50;99836.56;5066493;28;20056;-46
2021/11/05 06:00:00;;;;;;;42.08;18.25;;;;;;;11.34;91.06;99839.06;5056669;28;20409;-48
2021/11/05 06:02:27;;;;;;;39.70;18.92;;;;;;;11.34;90.82;99821.72;5065163;28;20049;-48
2021/11/05 06:04:54;;;;;;;36.22;17.23;;;;;;;11.30;90.41;99808.88;5053646;28;20048;-47
2021/11/05 06:07:20;;;;;;;35.13;18.25;;;;;;;11.23;89.69;99794.34;5065860;28;20427;-47
2021/11/05 06:09:46;;;;;;;36.17;18.92;;;;;;;11.34;89.64;99805.25;5069116;28;20048;-45
2021/11/05 06:12:12;;;;;;;40.95;18.73;;;;;;;11.31;89.86;99800.97;5067371;28;20033;-49
2021/11/05 06:14:38;;;;;;;40.83;19.17;;;;;;;11.43;89.01;99823.13;5066072;28;20043;-47
2021/11/05 06:17:04;;;;;;;33.70;17.95;;;;;;;11.41;88.98;99817.97;5065547;28;20044;-45
2021/11/05 06:19:31;;;;;;;41.08;18.77;;;;;;;11.47;88.47;99814.28;5066867;28;20063;-51
2021/11/05 06:21:57;;;;;;;37.65;17.95;;;;;;;11.49;88.51;99815.09;5048029;28;20064;-48
2021/11/05 06:24:23;;;;;;;39.25;18.88;;;;;;;11.47;88.10;99820.34;5065906;28;20044;-48
2021/11/05 06:26:49;;;;;;;37.58;19.30;;;;;;;11.45;88.42;99800.50;5043016;28;20056;-46
2021/11/05 06:29:15;;;;;;;39.05;19.35;;;;;;;11.52;88.06;99816.72;5049894;28;20041;-47
2021/11/05 06:31:42;;;;;;;38.90;17.25;;;;;;;11.41;87.77;99794.53;5064406;28;20055;-45
2021/11/05 06:34:08;;;;;;;37.55;18.88;;;;;;;11.54;87.57;99812.31;5067998;28;20515;-44
2021/11/05 06:36:34;;;;;;;44.63;20.23;;;;;;;11.59;87.89;99811.25;5051260;28;20098;-44
2021/11/05 06:39:02;;;;;;;38.90;18.60;;;;;;;11.54;87.69;99807.97;5068492;28;20131;-45
2021/11/05 06:41:28;;;;;;;38.53;18.75;;;;;;;11.56;87.88;99813.13;5082208;28;20128;-46
2021/11/05 06:43:54;;;;;;;40.33;19.48;;;;;;;11.55;88.34;99820.09;5068977;28;20123;-45
2021/11/05 06:46:20;;;;;;;39.65;19.05;;;;;;;11.46;89.41;99828.25;5068165;28;20747;-47
2021/11/05 06:48:46;;;;;;;42.55;20.35;;;;;;;11.30;91.27;99811.47;5065581;28;20076;-43
2021/11/05 06:51:12;;;;;;;45.42;21.30;;;;;;;10.95;94.37;99789.25;5066209;28;20486;-44
2021/11/05 06:53:38;;;;;;;40.72;19.67;;;;;;;10.93;97.06;99811.88;5053630;28;20044;-46
2021/11/05 06:56:05;;;;;;;40.67;18.38;;;;;;;10.77;98.82;99793.34;5069518;28;20068;-47
2021/11/05 06:58:35;;;;;;;39.75;18.85;;;;;;;10.69;100.00;99802.28;5064559;28;20048;-48
2021/11/05 07:01:06;;;;;;;40.08;18.92;;;;;;;10.55;100.00;99784.53;5070037;28;20050;-47
2021/11/05 07:03:32;;;;;;;45.72;19.98;;;;;;;10.46;100.00;99796.09;5067117;28;20391;-44
2021/11/05 07:05:58;;;;;;;56.92;22.38;;;;;;;10.35;100.00;99785.19;5048826;28;20044;-44
2021/11/05 07:08:25;;;;;;;45.97;21.05;;;;;;;10.37;100.00;99791.16;5033922;28;20044;-45
2021/11/05 07:10:51;;;;;;;41.45;18.13;;;;;;;10.36;100.00;99789.50;5063791;28;20048;-44
2021/11/05 07:13:17;;;;;;;40.63;18.60;;;;;;;10.30;100.00;99787.09;5050666;28;20064;-44
2021/11/05 07:15:43;;;;;;;34.00;16.05;;;;;;;10.32;100.00;99777.47;5062441;28;20071;-47
2021/11/05 07:18:09;;;;;;;44.58;19.65;;;;;;;10.25;100.00;99775.13;5066523;28;20040;-46
2021/11/05 07:20:36;;;;;;;46.85;19.67;;;;;;;10.25;100.00;99768.19;5068699;28;20071;-47
2021/11/05 07:23:02;;;;;;;48.13;20.45;;;;;;;10.16;100.00;99742.47;5065746;28;20051;-46
2021/11/05 07:25:28;;;;;;;45.33;18.63;;;;;;;10.28;100.00;99749.88;5066025;28;20043;-44
2021/11/05 07:27:54;;;;;;;46.03;19.88;;;;;;;10.31;100.00;99741.97;5068106;28;20048;-45
2021/11/05 07:30:20;;;;;;;45.40;20.08;;;;;;;10.34;100.00;99751.44;5067452;28;20045;-44
2021/11/05 07:32:47;;;;;;;39.35;18.48;;;;;;;10.33;100.00;99742.78;5067482;28;20058;-50
2021/11/05 07:35:15;;;;;;;45.58;19.60;;;;;;;10.36;100.00;99745.31;5067539;28;20032;-46
2021/11/05 07:37:41;;;;;;;38.00;18.10;;;;;;;10.36;100.00;99734.06;5065223;28;20044;-45
2021/11/05 07:40:08;;;;;;;40.10;18.85;;;;;;;10.38;100.00;99737.44;5064623;28;20400;-44
2021/11/05 07:42:38;;;;;;;36.15;17.13;;;;;;;10.40;100.00;99746.03;5066376;28;20373;-44
2021/11/05 07:45:06;;;;;;;40.10;18.58;;;;;;;10.43;100.00;99752.00;5025429;28;20033;-46
2021/11/05 07:47:32;;;;;;;29.77;14.45;;;;;;;10.46;100.00;99764.91;5064785;28;20041;-49
2021/11/05 07:49:58;;;;;;;41.08;17.50;;;;;;;10.49;100.00;99751.78;5065889;28;20047;-49
2021/11/05 07:52:24;;;;;;;36.53;17.02;;;;;;;10.46;100.00;99746.72;5065847;28;20060;-50
2021/11/05 07:54:50;;;;;;;39.42;18.73;;;;;;;10.57;99.19;99736.78;5048963;28;20068;-48
2021/11/05 07:57:16;;;;;;;39.35;18.13;;;;;;;10.63;98.43;99735.72;5066790;28;20079;-51
2021/11/05 07:59:42;;;;;;;39.97;19.38;;;;;;;10.65;98.06;99749.53;5067691;28;20516;-48
2021/11/05 08:02:08;;;;;;;39.88;19.92;;;;;;;10.71;97.31;99733.72;5062068;28;20068;-50
2021/11/05 08:04:35;;;;;;;42.90;19.30;;;;;;;10.76;97.19;99725.75;5048272;28;20128;-46
2021/11/05 08:07:01;;;;;;;37.67;18.02;;;;;;;10.79;95.54;99723.91;5044790;28;20036;-51
2021/11/05 08:09:26;;;;;;;39.38;18.25;;;;;;;10.84;95.27;99741.94;5069176;28;20131;-48
2021/11/05 08:11:52;;;;;;;37.83;18.08;;;;;;;10.88;94.46;99739.22;5068900;28;20094;-46
2021/11/05 08:14:18;;;;;;;39.30;18.27;;;;;;;10.93;94.52;99729.50;5069239;28;20049;-50
2021/11/05 08:16:44;;;;;;;39.50;19.45;;;;;;;10.95;94.24;99712.06;5068861;28;20055;-48
2021/11/05 08:19:11;;;;;;;44.28;20.00;;;;;;;11.04;93.71;99708.31;5051475;28;20047;-52
2021/11/05 08:21:37;;;;;;;39.65;18.63;;;;;;;11.02;92.80;99699.69;5069286;28;20071;-49
2021/11/05 08:24:04;;;;;;;39.58;18.13;;;;;;;11.11;92.38;99711.50;5048392;28;20041;-48
2021/11/05 08:26:31;;;;;;;39.63;19.98;;;;;;;11.14;92.33;99704.47;5062697;28;20136;-46
2021/11/05 08:28:58;;;;;;;40.33;19.23;;;;;;;11.21;91.61;99705.06;5057863;28;20499;-49
2021/11/05 08:31:24;;;;;;;37.30;18.02;;;;;;;11.29;91.60;99716.06;5059549;28;20028;-48
2021/11/05 08:33:50;;;;;;;40.35;19.17;;;;;;;11.27;90.34;99704.84;5055243;28;20070;-51
2021/11/05 08:36:17;;;;;;;37.35;19.10;;;;;;;11.27;90.20;99697.88;5068060;28;20131;-49
2021/11/05 08:38:44;;;;;;;38.88;17.10;;;;;;;11.28;89.71;99697.00;5072446;28;20040;-47
2021/11/05 08:41:16;;;;;;;37.88;18.48;;;;;;;11.23;89.19;99679.84;5054729;28;20044;-46
2021/11/05 08:43:43;;;;;;;36.85;18.40;;;;;;;11.33;88.22;99699.41;5072147;28;20118;-45
2021/11/05 08:46:09;;;;;;;38.58;19.25;;;;;;;11.36;88.43;99702.75;5069528;28;20048;-48
2021/11/05 08:48:35;;;;;;;33.28;16.98;;;;;;;11.37;87.44;99693.19;5052994;28;20053;-48
2021/11/05 08:51:07;;;;;;;36.05;16.50;;;;;;;11.38;87.05;99702.69;5048253;28;20068;-48
2021/11/05 08:53:33;;;;;;;36.65;15.40;;;;;;;11.37;86.82;99707.06;5051740;28;20464;-48
2021/11/05 08:55:59;;;;;;;31.63;16.65;;;;;;;11.34;86.71;99701.97;5034442;28;20496;-49
2021/11/05 08:58:25;;;;;;;37.28;18.73;;;;;;;11.37;87.09;99696.63;5055121;28;20082;-49
2021/11/05 09:00:51;;;;;;;35.97;17.33;;;;;;;11.39;86.69;99692.25;5068677;28;20547;-49
2021/11/05 09:03:17;;;;;;;31.10;16.58;;;;;;;11.38;86.63;99693.13;5074324;28;20048;-47
2021/11/05 09:05:43;;;;;;;35.13;17.05;;;;;;;11.36;86.84;99681.91;5036859;28;20036;-47
2021/11/05 09:08:09;;;;;;;33.33;17.92;;;;;;;11.37;87.08;99669.75;5065631;28;20506;-49
2021/11/05 09:10:35;;;;;;;35.75;19.45;;;;;;;11.42;87.01;99662.63;5037343;28;20105;-48
2021/11/05 09:13:03;;;;;;;32.75;15.70;;;;;;;11.34;87.54;99654.28;5045757;28;20033;-50
2021/11/05 09:15:30;;;;;;;33.15;16.73;;;;;;;11.30;88.19;99687.38;5034341;28;20162;-45
2021/11/05 09:17:57;;;;;;;40.50;17.50;;;;;;;11.22;88.07;99649.53;5056182;28;20043;-47
2021/11/05 09:20:23;;;;;;;30.05;15.20;;;;;;;11.25;87.61;99671.06;5036523;28;20566;-45
2021/11/05 09:22:50;;;;;;;36.78;17.30;;;;;;;11.21;87.55;99653.03;5041830;28;20036;-47
2021/11/05 09:25:17;;;;;;;38.90;18.20;;;;;;;11.31;86.97;99639.59;5071297;28;20131;-45
2021/11/05 09:27:47;;;;;;;28.35;15.07;;;;;;;11.32;86.05;99630.03;5064994;28;20037;-51
2021/11/05 09:30:14;;;;;;;32.88;15.65;;;;;;;11.33;85.53;99622.19;5071335;28;20047;-49
2021/11/05 09:32:40;;;;;;;28.77;13.73;;;;;;;11.33;84.95;99636.94;5045589;28;20128;-52
2021/11/05 09:35:09;;;;;;;32.47;15.48;;;;;;;11.41;84.58;99640.09;5059117;28;20128;-49
2021/11/05 09:37:35;;;;;;;34.97;17.02;;;;;;;11.36;84.51;99624.66;5052432;28;20431;-47
2021/11/05 09:40:02;;;;;;;27.42;13.15;;;;;;;11.52;83.94;99635.31;5068204;28;20113;-49
2021/11/05 09:42:30;;;;;;;28.02;13.90;;;;;;;11.47;83.68;99625.09;5062414;28;20044;-47
2021/11/05 09:44:58;;;;;;;35.30;17.08;;;;;;;11.52;83.41;99617.09;5064564;28;20580;-48
2021/11/05 09:47:28;;;;;;;27.80;14.95;;;;;;;11.48;83.18;99632.00;5080560;28;20047;-49
2021/11/05 09:49:55;;;;;;;28.42;14.77;;;;;;;11.44;83.51;99625.22;5065971;28;20048;-48
2021/11/05 09:52:21;;;;;;;28.58;14.35;;;;;;;11.41;83.93;99614.06;5063110;28;20047;-49
2021/11/05 09:54:48;;;;;;;30.15;14.73;;;;;;;11.51;83.49;99620.63;5046446;28;20071;-48
2021/11/05 09:57:15;;;;;;;34.28;15.75;;;;;;;11.47;83.45;99609.47;5048156;28;20058;-49
2021/11/05 09:59:42;;;;;;;23.17;12.70;;;;;;;11.44;83.33;99612.22;5028458;28;20538;-49
2021/11/05 10:02:14;;;;;;;25.75;13.23;;;;;;;11.47;84.07;99621.63;5024390;28;20037;-47
2021/11/05 10:04:39;;;;;;;27.05;12.80;;;;;;;11.46;84.32;99610.38;5050395;28;20602;-49
2021/11/05 10:07:10;;;;;;;27.13;13.40;;;;;;;11.43;84.06;99604.44;5033039;28;20056;-49
2021/11/05 10:09:39;;;;;;;24.70;12.60;;;;;;;11.41;85.23;99588.88;5040888;28;20056;-48
2021/11/05 10:12:11;;;;;;;32.78;15.25;;;;;;;11.41;85.39;99596.69;5044683;28;20113;-49
2021/11/05 10:14:38;;;;;;;25.88;12.73;;;;;;;11.40;86.00;99589.81;5043034;28;20044;-50
2021/11/05 10:17:08;;;;;;;37.58;16.00;;;;;;;11.41;85.94;99573.25;5049099;28;20176;-49
2021/11/05 10:19:55;;;;;;;30.02;15.05;;;;;;;11.48;86.19;99563.47;5044434;28;20044;-50
2021/11/05 10:22:50;;;;;;;29.75;13.80;;;;;;;11.52;86.18;99553.75;5043841;28;20041;-53
2021/11/05 10:25:36;;;;;;;28.25;13.05;;;;;;;11.55;86.02;99583.16;5045859;28;20044;-46
2021/11/05 10:28:06;;;;;;;31.73;16.00;;;;;;;11.61;86.03;99567.28;5039807;28;20068;-46
2021/11/05 10:30:53;;;;;;;32.00;15.15;;;;;;;11.63;86.26;99568.06;5042334;28;20508;-47
2021/11/05 10:33:22;;;;;;;34.45;16.98;;;;;;;11.58;87.11;99553.53;5045099;28;20135;-51
2021/11/05 10:35:50;;;;;;;31.75;15.48;;;;;;;11.57;87.68;99565.69;5056290;28;20087;-48
2021/11/05 10:38:16;;;;;;;37.88;17.08;;;;;;;11.46;88.32;99536.66;5041001;28;20049;-49
2021/11/05 10:40:57;;;;;;;34.35;16.70;;;;;;;11.58;88.79;99556.13;5040625;28;20508;-47
2021/11/05 10:43:35;;;;;;;34.72;16.65;;;;;;;11.56;89.01;99555.38;5032079;28;20039;-50
2021/11/05 10:46:02;;;;;;;33.80;16.27;;;;;;;11.57;89.52;99550.06;5044409;28;20040;-48
2021/11/05 10:48:30;;;;;;;37.13;16.90;;;;;;;11.54;90.24;99538.94;5044405;28;20040;-48
2021/11/05 10:51:03;;;;;;;33.15;15.25;;;;;;;11.48;91.09;99525.25;5040281;28;20054;-49
2021/11/05 10:53:31;;;;;;;33.05;15.95;;;;;;;11.49;91.23;99528.72;5033335;28;20052;-49
2021/11/05 10:56:04;;;;;;;40.47;17.67;;;;;;;11.45;91.98;99541.03;5041932;28;20486;-49
2021/11/05 10:58:40;;;;;;;40.85;18.95;;;;;;;11.42;92.73;99532.47;5060622;28;20507;-46
2021/11/05 11:01:08;;;;;;;38.35;17.77;;;;;;;11.42;93.05;99548.94;5060561;28;20079;-49
2021/11/05 11:03:41;;;;;;;38.22;17.85;;;;;;;11.39;93.28;99528.25;5051719;28;20095;-48
2021/11/05 11:06:13;;;;;;;33.53;16.25;;;;;;;11.45;93.40;99541.03;5032117;28;20036;-48
2021/11/05 11:08:41;;;;;;;40.72;16.52;;;;;;;11.48;93.40;99532.22;5054225;28;21830;-50
2021/11/05 11:11:13;;;;;;;36.20;18.05;;;;;;;11.51;93.06;99533.88;5037588;28;20456;-48
2021/11/05 11:13:40;;;;;;;41.83;18.02;;;;;;;11.52;93.30;99540.75;5051624;28;20073;-45